Time;durP1;ratioP1;P1;durP2;ratioP2;P2;SDS_P1;SDS_P2;PMS_P1;PMS_P2;Temp;Humidity;BMP_temperature;BMP_pressure;BME280_temperature;BME280_humidity;BME280_pressure;Samples;Min_cycle;Max_cycle;Signal;HPM_P1;HPM_P2
2023/01/22 00:01:21;;;;;;;9.85;4.88;;;-1.60;99.90;;;;;;5029249;28;20197;-69
2023/01/22 00:03:48;;;;;;;5.78;4.45;;;-1.60;99.90;;;;;;5030147;28;20293;-69
2023/01/22 00:06:16;;;;;;;5.80;5.07;;;-1.50;99.90;;;;;;5029670;28;20310;-69
2023/01/22 00:08:43;;;;;;;7.80;3.65;;;-1.60;99.90;;;;;;5028986;28;20209;-69
2023/01/22 00:11:11;;;;;;;8.35;4.22;;;-1.60;99.90;;;;;;5029590;28;20212;-69
2023/01/22 00:13:37;;;;;;;9.13;5.07;;;-1.60;99.90;;;;;;5029495;28;20716;-69
2023/01/22 00:16:05;;;;;;;12.88;5.88;;;-1.60;99.90;;;;;;5029496;28;20225;-69
2023/01/22 00:18:31;;;;;;;6.95;4.35;;;-1.50;99.90;;;;;;5028860;28;20209;-69
2023/01/22 00:20:58;;;;;;;7.82;4.55;;;-1.60;99.90;;;;;;5029276;28;20210;-69
2023/01/22 00:23:26;;;;;;;5.93;4.47;;;-1.50;99.90;;;;;;5029340;28;20202;-69
2023/01/22 00:26:00;;;;;;;6.72;4.28;;;-1.50;99.90;;;;;;5029661;28;20589;-69
2023/01/22 00:28:27;;;;;;;6.93;4.18;;;-1.60;99.90;;;;;;5028884;28;20229;-68
2023/01/22 00:30:57;;;;;;;12.60;5.10;;;-1.60;99.90;;;;;;5029317;28;20209;-69
2023/01/22 00:33:24;;;;;;;5.25;4.28;;;-1.60;99.90;;;;;;5028813;28;20652;-70
2023/01/22 00:35:51;;;;;;;6.43;4.40;;;-1.50;99.90;;;;;;5029299;28;20232;-69
2023/01/22 00:38:17;;;;;;;6.72;4.25;;;-1.60;99.90;;;;;;5028713;28;20201;-69
2023/01/22 00:40:45;;;;;;;6.38;3.92;;;-1.50;99.90;;;;;;5014093;28;20673;-69
2023/01/22 00:43:12;;;;;;;6.53;4.18;;;-1.50;99.90;;;;;;5009678;28;20211;-69
2023/01/22 00:45:39;;;;;;;6.53;4.10;;;-1.50;99.90;;;;;;5009707;28;20222;-69
2023/01/22 00:48:06;;;;;;;9.00;5.28;;;-1.50;99.90;;;;;;5010585;28;20237;-69
2023/01/22 00:50:33;;;;;;;6.53;4.53;;;-1.50;99.90;;;;;;5009795;28;20622;-69
2023/01/22 00:53:00;;;;;;;9.27;5.20;;;-1.60;99.90;;;;;;5010022;28;20241;-69
2023/01/22 00:55:27;;;;;;;7.72;3.85;;;-1.60;99.90;;;;;;5009261;28;20234;-69
2023/01/22 00:57:55;;;;;;;5.20;3.78;;;-1.50;99.90;;;;;;5011437;28;20202;-68
2023/01/22 01:00:21;;;;;;;8.05;4.80;;;-1.50;99.90;;;;;;5012689;28;20558;-69
2023/01/22 01:05:33;;;;;;;6.95;4.18;;;-1.50;99.90;;;;;;5014513;28;20291;-68
2023/01/22 01:07:59;;;;;;;4.10;3.53;;;-1.50;99.90;;;;;;5014503;28;20206;-70
2023/01/22 01:10:26;;;;;;;6.38;4.70;;;-1.50;99.90;;;;;;5013723;28;20213;-69
2023/01/22 01:12:54;;;;;;;7.68;4.65;;;-1.50;99.90;;;;;;5014466;28;20720;-68
2023/01/22 01:15:21;;;;;;;7.53;5.38;;;-1.50;99.90;;;;;;5014181;28;20237;-68
2023/01/22 01:17:47;;;;;;;8.13;4.50;;;-1.50;99.90;;;;;;5014572;28;20210;-69
2023/01/22 01:20:15;;;;;;;5.35;3.63;;;-1.50;99.90;;;;;;5013755;28;20209;-68
2023/01/22 01:22:42;;;;;;;8.82;4.40;;;-1.50;99.90;;;;;;5014552;28;20238;-69
2023/01/22 01:25:08;;;;;;;5.75;3.85;;;-1.50;99.90;;;;;;5013997;28;20206;-69
2023/01/22 01:27:35;;;;;;;5.95;3.70;;;-1.50;99.90;;;;;;5014535;28;20206;-69
2023/01/22 01:30:04;;;;;;;5.25;4.38;;;-1.50;99.90;;;;;;5013891;28;20210;-69
2023/01/22 01:32:30;;;;;;;6.20;3.60;;;-1.50;99.90;;;;;;5014440;28;20210;-69
2023/01/22 01:34:57;;;;;;;8.88;5.30;;;-1.50;99.90;;;;;;5014066;28;20226;-69
2023/01/22 01:37:24;;;;;;;8.05;4.70;;;-1.40;99.90;;;;;;5014058;28;20582;-68
2023/01/22 01:39:51;;;;;;;7.88;4.85;;;-1.40;99.90;;;;;;5015035;28;20199;-69
2023/01/22 01:42:27;;;;;;;5.68;4.00;;;-1.40;99.90;;;;;;5014480;28;20226;-69
2023/01/22 01:45:22;;;;;;;8.38;5.25;;;-1.40;99.90;;;;;;5014259;28;20260;-69
2023/01/22 01:47:51;;;;;;;6.95;4.50;;;-1.40;99.90;;;;;;5013914;28;20700;-69
2023/01/22 01:50:20;;;;;;;8.75;4.63;;;-1.30;99.90;;;;;;5013171;28;20697;-69
2023/01/22 01:52:47;;;;;;;5.90;4.40;;;-1.40;99.90;;;;;;5013720;28;20210;-69
2023/01/22 01:55:16;;;;;;;6.72;4.32;;;-1.30;99.90;;;;;;5013397;28;20226;-69
2023/01/22 01:57:43;;;;;;;5.25;4.22;;;-1.30;99.90;;;;;;5013875;28;20213;-69
2023/01/22 02:00:13;;;;;;;8.75;4.93;;;-1.40;99.90;;;;;;5013004;28;20209;-69
2023/01/22 02:02:42;;;;;;;6.72;4.50;;;-1.30;99.90;;;;;;5013706;28;20202;-69
2023/01/22 02:05:10;;;;;;;6.03;3.83;;;-1.40;99.90;;;;;;5013329;28;20311;-69
2023/01/22 02:07:36;;;;;;;7.50;5.30;;;-1.30;99.90;;;;;;5013367;28;20712;-69
2023/01/22 02:10:05;;;;;;;5.60;4.63;;;-1.30;99.90;;;;;;5012521;28;20206;-68
2023/01/22 02:12:32;;;;;;;8.23;5.05;;;-1.30;99.90;;;;;;5013233;28;20214;-69
2023/01/22 02:15:02;;;;;;;7.10;5.25;;;-1.30;99.90;;;;;;5013159;28;20631;-69
2023/01/22 02:17:29;;;;;;;8.75;6.45;;;-1.30;99.90;;;;;;5013321;28;20210;-68
2023/01/22 02:19:57;;;;;;;7.03;5.65;;;-1.30;99.90;;;;;;5012764;28;20457;-69
2023/01/22 02:22:29;;;;;;;4.40;3.95;;;-1.40;99.90;;;;;;5013111;28;20214;-69
2023/01/22 02:24:58;;;;;;;6.88;3.97;;;-1.40;99.90;;;;;;5013131;28;20570;-69
2023/01/22 02:27:25;;;;;;;6.78;5.13;;;-1.40;99.90;;;;;;5013029;28;20213;-69
2023/01/22 02:29:52;;;;;;;7.15;4.72;;;-1.30;99.90;;;;;;5012818;28;20206;-69
2023/01/22 02:32:19;;;;;;;7.88;4.97;;;-1.30;99.90;;;;;;5012752;28;20206;-69
2023/01/22 02:34:45;;;;;;;4.93;3.60;;;-1.30;99.90;;;;;;5012771;28;20222;-69
2023/01/22 02:37:12;;;;;;;4.65;3.80;;;-1.30;99.90;;;;;;5012513;28;20219;-70
2023/01/22 02:39:40;;;;;;;5.93;4.13;;;-1.30;99.90;;;;;;5012426;28;20205;-69
2023/01/22 02:42:08;;;;;;;6.07;4.95;;;-1.30;99.90;;;;;;5012667;28;20207;-68
2023/01/22 02:44:35;;;;;;;7.03;4.85;;;-1.30;99.90;;;;;;5012814;28;20577;-69
2023/01/22 02:47:01;;;;;;;8.15;4.90;;;-1.30;99.90;;;;;;5012989;28;20661;-70
2023/01/22 02:49:28;;;;;;;7.03;4.63;;;-1.20;99.90;;;;;;5012014;28;20214;-69
2023/01/22 02:51:55;;;;;;;7.68;4.85;;;-1.20;99.90;;;;;;5012753;28;20210;-69
2023/01/22 02:54:22;;;;;;;6.72;5.40;;;-1.20;99.90;;;;;;5012364;28;20258;-69
2023/01/22 02:56:50;;;;;;;6.55;4.93;;;-1.20;99.90;;;;;;5012539;28;20230;-69
2023/01/22 02:59:16;;;;;;;6.13;5.00;;;-1.20;99.90;;;;;;5012147;28;20206;-69
2023/01/22 03:01:43;;;;;;;5.57;4.80;;;-1.20;99.90;;;;;;5012430;28;20613;-69
2023/01/22 03:04:10;;;;;;;7.15;5.00;;;-1.20;99.90;;;;;;5012345;28;20578;-68
2023/01/22 03:06:39;;;;;;;9.75;4.40;;;-1.20;99.90;;;;;;5012277;28;20226;-69
2023/01/22 03:09:07;;;;;;;6.95;4.53;;;-1.20;99.90;;;;;;5011942;28;20209;-69
2023/01/22 03:11:36;;;;;;;9.88;5.53;;;-1.20;99.90;;;;;;5012148;28;20701;-69
2023/01/22 03:22:18;;;;;;;8.00;5.85;;;-1.20;99.90;;;;;;5012037;28;20205;-69
2023/01/22 03:24:49;;;;;;;8.52;6.00;;;-1.20;99.90;;;;;;5012146;28;20220;-69
2023/01/22 03:27:16;;;;;;;6.43;4.80;;;-1.20;99.90;;;;;;5012136;28;20280;-69
2023/01/22 03:29:45;;;;;;;6.80;4.88;;;-1.10;99.90;;;;;;5011770;28;20602;-69
2023/01/22 03:32:11;;;;;;;5.93;4.78;;;-1.10;99.90;;;;;;5011860;28;20202;-69
2023/01/22 03:34:38;;;;;;;6.70;5.10;;;-1.10;99.90;;;;;;5011851;28;20230;-69
2023/01/22 03:37:05;;;;;;;11.02;5.85;;;-1.10;99.90;;;;;;5011791;28;20729;-69
2023/01/22 03:39:32;;;;;;;7.88;5.00;;;-1.00;99.90;;;;;;5011363;28;20685;-69
2023/01/22 03:41:59;;;;;;;7.10;4.93;;;-1.10;99.90;;;;;;5012061;28;20202;-69
2023/01/22 03:44:26;;;;;;;7.53;4.93;;;-1.00;99.90;;;;;;5011739;28;20214;-69
2023/01/22 03:46:54;;;;;;;6.10;4.85;;;-1.00;99.90;;;;;;5011750;28;20717;-69
2023/01/22 03:49:21;;;;;;;8.18;5.75;;;-1.00;99.90;;;;;;5011069;28;20206;-68
2023/01/22 03:51:48;;;;;;;8.75;5.75;;;-1.00;99.90;;;;;;5011972;28;20209;-70
2023/01/22 03:54:16;;;;;;;8.27;5.28;;;-1.00;99.90;;;;;;5011433;28;20230;-69
2023/01/22 03:56:43;;;;;;;8.90;5.50;;;-1.00;99.90;;;;;;5011841;28;20233;-70
2023/01/22 03:59:10;;;;;;;8.45;4.88;;;-0.90;99.90;;;;;;5011589;28;20206;-70
2023/01/22 04:01:37;;;;;;;9.18;5.90;;;-1.00;99.90;;;;;;5011529;28;20210;-70
2023/01/22 04:04:06;;;;;;;7.10;5.00;;;-1.00;99.90;;;;;;5011426;28;20199;-70
2023/01/22 04:06:32;;;;;;;6.50;4.95;;;-1.00;99.90;;;;;;5011369;28;20230;-70
2023/01/22 04:08:59;;;;;;;8.43;5.55;;;-1.00;99.90;;;;;;5011130;28;20213;-70
2023/01/22 04:11:26;;;;;;;8.20;5.40;;;-1.00;99.90;;;;;;5011281;28;20673;-70
2023/01/22 04:13:55;;;;;;;8.63;6.40;;;-1.00;99.90;;;;;;5011298;28;20595;-69
2023/01/22 04:16:21;;;;;;;7.78;4.57;;;-1.00;99.90;;;;;;5011184;28;20257;-70
2023/01/22 04:18:48;;;;;;;7.00;4.95;;;-1.00;99.90;;;;;;5010761;28;20225;-70
2023/01/22 04:21:16;;;;;;;10.10;6.20;;;-1.00;99.90;;;;;;5011183;28;20607;-70
2023/01/22 04:23:43;;;;;;;9.48;5.40;;;-1.00;99.90;;;;;;5011328;28;20206;-69
2023/01/22 04:26:10;;;;;;;9.30;5.90;;;-1.00;99.90;;;;;;5010920;28;20221;-70
2023/01/22 04:28:36;;;;;;;8.52;5.70;;;-1.00;99.90;;;;;;5010887;28;20214;-70
2023/01/22 04:31:03;;;;;;;10.48;6.47;;;-1.00;99.90;;;;;;5010977;28;20229;-70
2023/01/22 04:33:30;;;;;;;9.48;5.55;;;-1.00;99.90;;;;;;5011075;28;20252;-69
2023/01/22 04:35:57;;;;;;;9.43;5.03;;;-1.00;99.90;;;;;;5010875;28;20241;-69
2023/01/22 04:38:25;;;;;;;7.22;5.05;;;-0.90;99.90;;;;;;5010449;28;20225;-70
2023/01/22 04:40:52;;;;;;;7.90;5.72;;;-0.90;99.90;;;;;;5011068;28;20286;-69
2023/01/22 04:43:19;;;;;;;7.82;6.40;;;-0.90;99.90;;;;;;5010869;28;20555;-69
2023/01/22 04:45:45;;;;;;;7.93;6.13;;;-0.90;99.90;;;;;;5011004;28;20234;-69
2023/01/22 04:48:12;;;;;;;8.85;6.10;;;-0.90;99.90;;;;;;5010537;28;20218;-69
2023/01/22 04:50:39;;;;;;;8.80;6.35;;;-0.90;99.90;;;;;;5010787;28;20225;-70
2023/01/22 04:53:06;;;;;;;8.25;5.32;;;-0.90;99.90;;;;;;5010886;28;20209;-70
2023/01/22 04:55:34;;;;;;;9.98;5.40;;;-0.90;99.90;;;;;;5010490;28;20694;-70
2023/01/22 04:58:02;;;;;;;6.85;5.05;;;-0.90;99.90;;;;;;5010978;28;20202;-70
2023/01/22 05:00:30;;;;;;;7.60;5.55;;;-0.90;99.90;;;;;;5010110;28;20202;-70
2023/01/22 05:02:57;;;;;;;8.07;4.60;;;-0.90;99.90;;;;;;5010868;28;20206;-70
2023/01/22 05:05:25;;;;;;;9.02;5.95;;;-0.90;99.90;;;;;;5010648;28;20226;-69
2023/01/22 05:07:51;;;;;;;9.18;5.72;;;-0.90;99.90;;;;;;5010895;28;20214;-70
2023/01/22 05:10:18;;;;;;;8.30;5.70;;;-1.00;99.90;;;;;;5010207;28;20206;-70
2023/01/22 05:12:47;;;;;;;6.10;4.90;;;-1.00;99.90;;;;;;5010722;28;20677;-69
2023/01/22 05:15:13;;;;;;;10.88;5.97;;;-1.00;99.90;;;;;;5010468;28;20229;-70
2023/01/22 05:17:40;;;;;;;7.68;5.75;;;-1.00;99.90;;;;;;5010807;28;20205;-70
2023/01/22 05:20:08;;;;;;;6.28;4.38;;;-1.00;99.90;;;;;;5009940;28;20210;-70
2023/01/22 05:22:35;;;;;;;6.68;4.50;;;-0.90;99.90;;;;;;5010817;28;20210;-70
2023/01/22 05:25:02;;;;;;;9.75;6.30;;;-0.90;99.90;;;;;;5010419;28;20202;-70
2023/01/22 05:27:28;;;;;;;7.72;5.82;;;-0.90;99.90;;;;;;5010496;28;20207;-69
2023/01/22 05:29:56;;;;;;;8.68;5.88;;;-0.90;99.90;;;;;;5010178;28;20209;-70
2023/01/22 05:32:23;;;;;;;7.53;5.53;;;-0.90;99.90;;;;;;5010307;28;20203;-70
2023/01/22 05:34:50;;;;;;;9.65;6.60;;;-0.80;99.90;;;;;;5010309;28;20724;-70
2023/01/22 05:37:17;;;;;;;11.05;5.82;;;-0.80;99.90;;;;;;5010393;28;20305;-69
2023/01/22 05:39:43;;;;;;;7.47;4.95;;;-0.80;99.90;;;;;;5010000;28;20670;-70
2023/01/22 05:42:14;;;;;;;8.40;4.85;;;-0.80;99.90;;;;;;5010358;28;20209;-70
2023/01/22 05:44:41;;;;;;;8.77;4.63;;;-0.80;99.90;;;;;;5013281;28;20226;-70
2023/01/22 05:47:09;;;;;;;8.88;6.65;;;-0.80;99.90;;;;;;5013876;28;20752;-70
2023/01/22 05:49:35;;;;;;;7.75;5.63;;;-0.80;99.90;;;;;;5013605;28;20214;-70
2023/01/22 05:52:02;;;;;;;7.03;5.25;;;-0.80;99.90;;;;;;5013925;28;20310;-70
2023/01/22 05:54:29;;;;;;;10.82;5.10;;;-0.80;99.90;;;;;;5013544;28;20213;-69
2023/01/22 05:56:55;;;;;;;10.73;6.13;;;-0.80;99.90;;;;;;5013784;28;20892;-70
2023/01/22 05:59:22;;;;;;;10.98;5.38;;;-0.80;99.90;;;;;;5013209;28;20206;-69
2023/01/22 06:01:49;;;;;;;8.32;6.05;;;-0.70;99.90;;;;;;5013752;28;20206;-70
2023/01/22 06:04:17;;;;;;;10.32;5.53;;;-0.70;99.90;;;;;;5013672;28;20700;-70
2023/01/22 06:06:43;;;;;;;9.15;6.00;;;-0.70;99.90;;;;;;5013535;28;20218;-69
2023/01/22 06:09:12;;;;;;;10.40;5.70;;;-0.70;99.90;;;;;;5013333;28;20203;-70
2023/01/22 06:11:39;;;;;;;5.28;4.40;;;-0.70;99.90;;;;;;5013679;28;20230;-70
2023/01/22 06:14:06;;;;;;;8.10;5.70;;;-0.80;99.90;;;;;;5013634;28;20198;-69
2023/01/22 06:16:33;;;;;;;10.20;6.32;;;-0.80;99.90;;;;;;5013852;28;20226;-70
2023/01/22 06:18:59;;;;;;;8.52;5.80;;;-0.80;99.90;;;;;;5013813;28;20210;-69
2023/01/22 06:21:27;;;;;;;8.65;6.00;;;-0.80;99.90;;;;;;5013617;28;20214;-70
2023/01/22 06:23:54;;;;;;;5.88;4.85;;;-0.80;99.90;;;;;;5013520;28;20674;-70
2023/01/22 06:26:21;;;;;;;12.82;6.30;;;-0.80;99.90;;;;;;5012923;28;20218;-70
2023/01/22 06:28:47;;;;;;;9.35;5.90;;;-0.80;99.90;;;;;;5012796;28;20213;-69
2023/01/22 06:31:14;;;;;;;10.68;6.28;;;-0.80;99.90;;;;;;5012740;28;20207;-70
2023/01/22 06:33:41;;;;;;;8.07;4.80;;;-0.80;99.90;;;;;;5013274;28;20641;-69
2023/01/22 06:36:08;;;;;;;8.50;4.80;;;-0.80;99.90;;;;;;5012785;28;20237;-70
2023/01/22 06:38:37;;;;;;;9.05;6.07;;;-0.80;99.90;;;;;;5012573;28;20206;-69
2023/01/22 06:41:04;;;;;;;6.95;4.95;;;-0.80;99.90;;;;;;5012867;28;20198;-70
2023/01/22 06:43:31;;;;;;;9.30;5.63;;;-0.80;99.90;;;;;;5012631;28;20202;-70
2023/01/22 06:45:57;;;;;;;9.25;5.35;;;-0.80;99.90;;;;;;5012860;28;20593;-70
2023/01/22 06:48:24;;;;;;;7.70;4.68;;;-0.80;99.90;;;;;;5012038;28;20218;-70
2023/01/22 06:50:51;;;;;;;11.07;5.93;;;-0.80;99.90;;;;;;5012885;28;20213;-70
2023/01/22 06:53:18;;;;;;;13.70;5.85;;;-0.80;99.90;;;;;;5012524;28;20220;-69
2023/01/22 06:55:46;;;;;;;8.95;5.75;;;-0.80;99.90;;;;;;5012286;28;20702;-70
2023/01/22 06:58:13;;;;;;;7.47;4.80;;;-0.80;99.90;;;;;;5012301;28;20633;-69
2023/01/22 07:00:39;;;;;;;11.02;7.15;;;-0.70;99.90;;;;;;5022900;28;20194;-70
2023/01/22 07:03:07;;;;;;;7.95;5.75;;;-0.70;99.90;;;;;;5017682;28;20199;-70
2023/01/22 07:05:34;;;;;;;8.80;6.40;;;-0.70;99.90;;;;;;5014921;28;20214;-70
2023/01/22 07:08:02;;;;;;;5.47;3.95;;;-0.70;99.90;;;;;;5029214;28;20224;-69
2023/01/22 07:10:29;;;;;;;8.57;5.50;;;-0.70;99.90;;;;;;5031785;28;20292;-70
2023/01/22 07:12:58;;;;;;;8.18;6.38;;;-0.70;99.90;;;;;;5032396;28;20199;-70
2023/01/22 07:15:26;;;;;;;7.45;5.00;;;-0.60;99.90;;;;;;5032333;28;20240;-70
2023/01/22 07:17:53;;;;;;;9.48;6.00;;;-0.60;99.90;;;;;;5032640;28;20209;-69
2023/01/22 07:20:20;;;;;;;6.82;5.13;;;-0.60;99.90;;;;;;5031949;28;20197;-70
2023/01/22 07:22:47;;;;;;;7.85;5.35;;;-0.60;99.90;;;;;;5027343;28;20201;-70
2023/01/22 07:25:14;;;;;;;6.28;5.65;;;-0.60;99.90;;;;;;5016593;28;20644;-69
2023/01/22 07:27:41;;;;;;;8.18;4.95;;;-0.60;99.90;;;;;;5020900;28;20675;-70
2023/01/22 07:30:10;;;;;;;8.20;6.05;;;-0.70;99.90;;;;;;5027939;28;20224;-69
2023/01/22 07:32:37;;;;;;;12.80;6.15;;;-0.60;99.90;;;;;;5022202;28;20684;-70
2023/01/22 07:35:04;;;;;;;6.55;4.90;;;-0.60;99.90;;;;;;5021449;28;20199;-71
2023/01/22 07:37:31;;;;;;;8.63;5.18;;;-0.60;99.90;;;;;;5019644;28;20195;-70
2023/01/22 07:39:57;;;;;;;9.55;5.07;;;-0.60;99.90;;;;;;5020562;28;20197;-70
2023/01/22 07:42:24;;;;;;;10.32;6.15;;;-0.60;99.90;;;;;;5021904;28;20203;-70
2023/01/22 07:44:51;;;;;;;8.48;6.35;;;-0.70;99.90;;;;;;5019235;28;20602;-70
2023/01/22 07:47:19;;;;;;;9.57;6.40;;;-0.60;99.90;;;;;;5021666;28;20209;-70
2023/01/22 07:49:45;;;;;;;9.90;6.05;;;-0.60;99.90;;;;;;5019948;28;20617;-69
2023/01/22 07:52:12;;;;;;;9.70;6.80;;;-0.60;99.90;;;;;;5020252;28;20245;-69
2023/01/22 07:54:39;;;;;;;10.35;5.70;;;-0.60;99.90;;;;;;5021869;28;20205;-69
2023/01/22 07:57:05;;;;;;;10.55;6.30;;;-0.50;99.90;;;;;;5020290;28;20225;-70
2023/01/22 07:59:32;;;;;;;7.07;4.85;;;-0.50;99.90;;;;;;5019978;28;20775;-71
2023/01/22 08:01:59;;;;;;;10.32;5.70;;;-0.40;99.90;;;;;;5021497;28;20197;-70
2023/01/22 08:04:27;;;;;;;9.35;6.40;;;-0.40;99.90;;;;;;5019733;28;20198;-70
2023/01/22 08:06:53;;;;;;;6.47;5.25;;;-0.40;99.90;;;;;;5019502;28;20216;-69
2023/01/22 08:09:24;;;;;;;6.35;5.13;;;-0.30;99.90;;;;;;5017821;28;20602;-70
2023/01/22 08:11:51;;;;;;;6.65;5.20;;;-0.30;99.90;;;;;;5017171;28;20195;-70
2023/01/22 08:14:18;;;;;;;8.75;5.72;;;-0.30;99.90;;;;;;5020124;28;20585;-70
2023/01/22 08:16:45;;;;;;;8.65;5.40;;;-0.20;99.90;;;;;;5010469;28;20230;-69
2023/01/22 08:19:12;;;;;;;8.27;4.55;;;-0.20;99.90;;;;;;5010034;28;20202;-69
2023/01/22 08:21:40;;;;;;;8.75;5.47;;;-0.10;99.90;;;;;;5010694;28;20206;-70
2023/01/22 08:24:09;;;;;;;9.18;5.40;;;-0.10;99.90;;;;;;5010861;28;20211;-69
2023/01/22 08:26:36;;;;;;;7.68;5.28;;;-0.10;99.90;;;;;;5013455;28;20573;-70
2023/01/22 08:29:03;;;;;;;8.23;5.72;;;0.00;99.90;;;;;;5029015;28;20233;-69
2023/01/22 08:31:29;;;;;;;9.13;5.85;;;0.00;99.90;;;;;;5026906;28;20202;-70
2023/01/22 08:33:58;;;;;;;10.70;6.40;;;0.00;99.90;;;;;;5030530;28;20209;-70
2023/01/22 08:36:25;;;;;;;8.60;6.03;;;0.10;99.90;;;;;;5030197;28;20229;-70
2023/01/22 08:38:53;;;;;;;7.85;5.78;;;0.10;99.90;;;;;;5030045;28;20205;-69
2023/01/22 08:41:20;;;;;;;8.73;5.78;;;0.10;99.90;;;;;;5030025;28;20209;-69
2023/01/22 08:43:46;;;;;;;8.48;6.13;;;0.10;99.90;;;;;;5030442;28;20206;-70
2023/01/22 08:46:13;;;;;;;10.05;5.13;;;0.10;99.90;;;;;;5029644;28;20709;-70
2023/01/22 08:48:42;;;;;;;6.80;6.10;;;0.20;99.90;;;;;;5031510;28;20692;-69
2023/01/22 08:51:09;;;;;;;8.68;6.70;;;0.10;99.90;;;;;;5030345;28;20209;-69
2023/01/22 08:53:36;;;;;;;8.18;5.82;;;0.10;99.90;;;;;;5030266;28;20206;-69
2023/01/22 08:56:05;;;;;;;9.20;5.70;;;0.20;99.90;;;;;;5029853;28;20232;-69
2023/01/22 08:58:31;;;;;;;9.85;6.40;;;0.20;99.90;;;;;;5029991;28;20202;-69
2023/01/22 09:00:58;;;;;;;16.65;10.30;;;0.20;99.90;;;;;;5030037;28;20681;-69
2023/01/22 09:03:25;;;;;;;11.25;6.95;;;0.20;99.90;;;;;;5029836;28;20201;-69
2023/01/22 09:05:52;;;;;;;8.73;5.90;;;0.30;99.90;;;;;;5030163;28;20222;-69
2023/01/22 09:08:19;;;;;;;11.73;5.93;;;0.30;99.90;;;;;;5029721;28;20583;-70
2023/01/22 09:10:45;;;;;;;8.90;5.40;;;0.40;99.90;;;;;;5030447;28;20259;-69
2023/01/22 09:13:14;;;;;;;8.30;5.65;;;0.40;99.90;;;;;;5029712;28;20565;-69
2023/01/22 09:15:41;;;;;;;7.97;4.90;;;0.40;99.90;;;;;;5030108;28;20233;-69
2023/01/22 09:18:08;;;;;;;7.38;6.20;;;0.40;99.90;;;;;;5030395;28;20205;-69
2023/01/22 09:20:34;;;;;;;7.80;5.13;;;0.40;99.90;;;;;;5033629;28;20240;-69
2023/01/22 09:23:01;;;;;;;8.52;6.30;;;0.40;99.90;;;;;;5033993;28;20206;-69
2023/01/22 09:25:28;;;;;;;8.15;4.88;;;0.50;99.90;;;;;;5033575;28;20373;-69
2023/01/22 09:27:58;;;;;;;6.85;4.70;;;0.50;99.90;;;;;;5033868;28;20229;-69
2023/01/22 09:30:26;;;;;;;7.10;4.72;;;0.60;99.90;;;;;;5032938;28;20205;-69
2023/01/22 09:32:53;;;;;;;6.25;5.15;;;0.60;99.90;;;;;;5033791;28;20212;-69
2023/01/22 09:35:20;;;;;;;9.20;6.07;;;0.70;99.90;;;;;;5033384;28;20218;-69
2023/01/22 09:37:47;;;;;;;8.25;6.15;;;0.80;99.90;;;;;;5031197;28;20217;-69
2023/01/22 09:40:25;;;;;;;11.65;6.75;;;0.80;99.90;;;;;;5033095;28;20194;-69
2023/01/22 09:42:53;;;;;;;10.18;6.40;;;0.90;99.90;;;;;;5030705;28;20205;-68
2023/01/22 09:45:25;;;;;;;11.50;6.20;;;1.00;99.90;;;;;;5027776;28;20228;-69
2023/01/22 09:47:57;;;;;;;8.20;4.18;;;1.10;99.90;;;;;;5012612;28;20213;-69
2023/01/22 09:50:25;;;;;;;8.23;5.10;;;1.10;99.90;;;;;;5012929;28;20230;-69
2023/01/22 09:52:54;;;;;;;8.10;6.35;;;1.20;99.90;;;;;;5012898;28;20207;-69
2023/01/22 09:55:23;;;;;;;8.07;6.25;;;1.20;99.90;;;;;;5012582;28;20589;-69
2023/01/22 09:57:53;;;;;;;14.80;9.95;;;1.20;99.90;;;;;;5011746;28;20233;-69
2023/01/22 10:00:26;;;;;;;12.00;7.35;;;1.40;99.90;;;;;;5011587;28;20210;-69
2023/01/22 10:03:00;;;;;;;10.18;6.70;;;1.60;99.90;;;;;;5018424;28;20229;-69
2023/01/22 10:05:32;;;;;;;7.72;4.70;;;1.60;99.90;;;;;;5032755;28;20844;-69
2023/01/22 10:08:05;;;;;;;7.95;6.13;;;1.60;99.90;;;;;;5033001;28;20298;-69
2023/01/22 10:10:33;;;;;;;7.55;5.28;;;1.70;99.90;;;;;;5032857;28;20579;-69
2023/01/22 10:13:06;;;;;;;6.75;4.40;;;1.80;99.90;;;;;;5032408;28;20201;-69
2023/01/22 10:15:33;;;;;;;5.53;4.10;;;1.80;99.90;;;;;;5032571;28;20229;-69
2023/01/22 10:18:07;;;;;;;8.93;5.40;;;1.90;99.90;;;;;;5032726;28;20695;-69
2023/01/22 10:20:34;;;;;;;6.32;4.70;;;2.00;99.90;;;;;;5032719;28;20206;-69
2023/01/22 10:23:08;;;;;;;5.40;3.80;;;2.00;99.90;;;;;;5032566;28;20210;-69
2023/01/22 10:25:35;;;;;;;7.22;4.53;;;2.00;99.90;;;;;;5032323;28;20236;-69
2023/01/22 10:28:03;;;;;;;9.05;4.53;;;1.90;99.90;;;;;;5032670;28;20197;-69
2023/01/22 10:30:29;;;;;;;10.48;5.30;;;1.90;99.90;;;;;;5030884;28;20295;-69
2023/01/22 10:33:04;;;;;;;8.05;4.90;;;1.90;99.90;;;;;;5018309;28;20686;-69
2023/01/22 10:35:31;;;;;;;6.72;4.82;;;1.90;99.90;;;;;;5012369;28;20237;-69
2023/01/22 10:37:59;;;;;;;7.28;4.68;;;1.90;99.90;;;;;;5011664;28;20222;-69
2023/01/22 10:40:29;;;;;;;9.20;5.47;;;2.00;99.90;;;;;;5011353;28;20207;-69
2023/01/22 10:43:04;;;;;;;9.77;4.78;;;2.00;99.90;;;;;;5011871;28;20210;-69
2023/01/22 10:45:31;;;;;;;5.55;4.70;;;2.00;99.90;;;;;;5026747;28;20650;-69
2023/01/22 10:48:12;;;;;;;8.20;4.85;;;2.00;99.90;;;;;;5031573;28;20198;-69
2023/01/22 10:50:39;;;;;;;8.20;5.70;;;1.90;99.90;;;;;;5031640;28;20202;-68
2023/01/22 10:53:15;;;;;;;8.30;4.80;;;1.90;99.90;;;;;;5031641;28;20205;-69
2023/01/22 10:55:42;;;;;;;8.48;5.80;;;1.70;99.90;;;;;;5031213;28;20715;-69
2023/01/22 10:58:16;;;;;;;7.80;5.35;;;1.70;99.90;;;;;;5031144;28;20233;-68
2023/01/22 11:00:43;;;;;;;9.40;6.63;;;1.60;99.90;;;;;;5031775;28;20669;-69
2023/01/22 11:03:20;;;;;;;9.60;6.20;;;1.60;99.90;;;;;;5030430;28;20204;-69
2023/01/22 11:05:50;;;;;;;7.95;5.20;;;1.60;99.90;;;;;;5031725;28;20218;-69
2023/01/22 11:08:19;;;;;;;8.18;5.32;;;1.50;99.90;;;;;;5030628;28;20669;-68
2023/01/22 11:10:51;;;;;;;8.90;6.35;;;1.40;99.90;;;;;;5031558;28;20205;-69
2023/01/22 11:13:23;;;;;;;10.85;5.82;;;1.40;99.90;;;;;;5030852;28;20201;-73
2023/01/22 11:15:55;;;;;;;7.70;5.47;;;1.40;99.90;;;;;;5031407;28;20218;-74
2023/01/22 11:18:31;;;;;;;10.98;5.90;;;1.40;99.90;;;;;;5030304;28;20701;-74
2023/01/22 11:21:00;;;;;;;8.80;6.32;;;1.40;99.90;;;;;;5031254;28;20201;-69
2023/01/22 11:23:42;;;;;;;7.47;5.20;;;1.40;99.90;;;;;;5014599;28;20240;-68
2023/01/22 11:26:15;;;;;;;7.65;5.35;;;1.40;99.90;;;;;;5009534;28;20744;-68
2023/01/22 11:28:50;;;;;;;8.98;5.75;;;1.50;99.90;;;;;;5010560;28;20206;-68
2023/01/22 11:31:31;;;;;;;10.75;6.00;;;1.50;99.90;;;;;;5008825;28;20206;-68
2023/01/22 11:34:31;;;;;;;8.57;5.95;;;1.40;99.90;;;;;;5009089;28;20685;-68
2023/01/22 11:37:04;;;;;;;10.85;6.43;;;1.40;99.90;;;;;;4997567;28;20239;-68
2023/01/22 11:39:48;;;;;;;9.13;5.85;;;1.50;99.90;;;;;;5013871;28;20213;-68
2023/01/22 11:42:28;;;;;;;10.07;5.00;;;1.50;99.90;;;;;;5028932;28;20593;-68
2023/01/22 11:45:05;;;;;;;7.95;5.63;;;1.50;99.90;;;;;;5027591;28;20724;-68
2023/01/22 11:47:51;;;;;;;8.93;5.40;;;1.40;99.90;;;;;;5027737;28;20212;-68
2023/01/22 11:50:27;;;;;;;8.85;5.55;;;1.40;99.90;;;;;;5029393;28;20257;-67
2023/01/22 11:53:05;;;;;;;12.55;5.63;;;1.40;99.90;;;;;;5030470;28;20815;-69
2023/01/22 11:55:46;;;;;;;9.18;5.15;;;1.40;99.90;;;;;;5030279;28;20237;-68
2023/01/22 11:58:24;;;;;;;6.28;5.15;;;1.50;99.90;;;;;;5029336;28;20218;-68
2023/01/22 12:00:58;;;;;;;6.63;5.65;;;1.60;99.90;;;;;;5030188;28;20198;-68
2023/01/22 12:03:55;;;;;;;7.45;4.90;;;1.60;99.90;;;;;;5029194;28;20640;-68
2023/01/22 12:06:55;;;;;;;6.88;4.60;;;1.70;99.90;;;;;;5010114;28;20222;-68
2023/01/22 12:09:26;;;;;;;7.93;5.35;;;1.60;99.90;;;;;;4994482;28;20206;-68
2023/01/22 12:12:05;;;;;;;7.18;4.18;;;1.70;99.90;;;;;;5010372;28;20301;-68
2023/01/22 12:14:49;;;;;;;6.47;4.50;;;1.70;99.90;;;;;;5009834;28;20206;-67
2023/01/22 12:17:29;;;;;;;6.80;4.97;;;1.60;99.90;;;;;;5009392;28;20218;-68
2023/01/22 12:20:30;;;;;;;7.57;5.43;;;1.40;99.90;;;;;;5010321;28;20194;-68
2023/01/22 12:23:04;;;;;;;7.97;4.75;;;1.40;99.90;;;;;;5009769;28;20206;-70
2023/01/22 12:25:38;;;;;;;7.68;5.88;;;1.50;99.90;;;;;;5009672;28;20234;-70
2023/01/22 12:28:12;;;;;;;7.72;5.32;;;1.50;99.90;;;;;;5025786;28;20209;-69
2023/01/22 12:30:47;;;;;;;7.05;5.03;;;1.60;99.90;;;;;;5030184;28;20212;-69
2023/01/22 12:33:20;;;;;;;5.85;4.20;;;1.60;99.90;;;;;;5029409;28;20201;-70
2023/01/22 12:35:50;;;;;;;8.40;4.88;;;1.70;99.90;;;;;;5012383;28;20222;-69
2023/01/22 12:38:26;;;;;;;8.80;5.63;;;1.70;99.90;;;;;;5010016;28;20234;-69
2023/01/22 12:41:05;;;;;;;7.85;6.05;;;1.70;99.90;;;;;;5010501;28;20213;-69
2023/01/22 12:43:37;;;;;;;8.20;4.65;;;1.80;99.90;;;;;;5009490;28;20576;-70
2023/01/22 12:46:11;;;;;;;7.93;5.20;;;1.80;99.90;;;;;;5009669;28;20222;-69
2023/01/22 12:48:46;;;;;;;8.40;5.13;;;1.80;99.90;;;;;;5008980;28;20204;-70
2023/01/22 12:51:26;;;;;;;7.30;4.70;;;1.70;99.90;;;;;;5009524;28;20238;-69
2023/01/22 12:53:54;;;;;;;6.72;4.93;;;1.70;99.90;;;;;;5012750;28;20202;-69
2023/01/22 12:56:30;;;;;;;6.75;4.65;;;1.70;99.90;;;;;;5013616;28;20222;-69
2023/01/22 12:58:58;;;;;;;9.07;4.85;;;1.80;99.90;;;;;;5013587;28;20233;-69
2023/01/22 13:01:32;;;;;;;4.38;3.65;;;1.80;99.90;;;;;;5013095;28;20217;-69
2023/01/22 13:04:01;;;;;;;11.10;4.75;;;1.80;99.90;;;;;;5013408;28;20206;-69
2023/01/22 13:06:33;;;;;;;6.78;5.00;;;1.80;99.90;;;;;;5013284;28;20222;-69
2023/01/22 13:09:02;;;;;;;7.75;5.95;;;1.90;99.90;;;;;;5013085;28;20194;-69